CDT,Max TemperatureF,Mean TemperatureF,Min TemperatureF,Max Dew PointF,MeanDew PointF,Min DewpointF,Max Humidity, Mean Humidity, Min Humidity, Max Sea Level PressureIn, Mean Sea Level PressureIn, Min Sea Level PressureIn, Max VisibilityMiles, Mean VisibilityMiles, Min VisibilityMiles, Max Wind SpeedMPH, Mean Wind SpeedMPH, Max Gust SpeedMPH,PrecipitationIn, CloudCover, Events, WindDirDegrees
2013-8-1,73,60,47,56,50,45,96,73,41,29.99,29.95,29.89,10,10,5,15,3,21,0.00,2,Rain,284
2013-8-2,73,60,46,58,51,45,97,74,40,30.02,29.91,29.84,10,8,0,15,4,18,0.01,2,Fog-Rain,311
2013-8-3,72,56,40,52,46,39,96,70,37,30.20,30.11,30.02,10,10,7,14,3,20,0.00,1,,314
2013-8-4,70,53,37,56,46,36,97,74,45,30.26,30.20,30.10,10,9,0,10,0,,0.00,2,Fog,288
2013-8-5,71,58,46,62,56,44,96,90,74,30.09,29.95,29.85,10,8,1,6,0,,0.01,6,Rain,187
2013-8-6,74,66,58,62,59,55,96,79,50,29.86,29.81,29.73,10,8,1,22,1,30,0.01,6,Rain,228
2013-8-7,70,58,44,59,53,42,96,78,40,30.05,29.90,29.70,10,9,2,13,3,17,0.02,4,Rain,323
2013-8-8,73,56,38,55,47,37,97,73,36,30.08,30.04,30.00,10,10,1,9,1,,0.00,1,,244
2013-8-9,70,59,48,55,49,45,96,72,42,30.11,30.02,29.97,10,10,3,17,3,24,0.00,4,,302
2013-8-10,68,58,46,57,52,45,95,78,55,30.18,30.15,30.11,10,10,7,7,1,,0.00,6,,292
2013-8-11,73,56,40,60,50,39,96,78,46,30.14,30.09,30.03,10,10,1,6,0,,0.00,2,,233
2013-8-12,73,59,42,61,52,41,97,75,41,30.09,30.01,29.97,10,8,0,15,3,22,0.00,4,Fog-Rain,327
2013-8-13,64,50,35,48,41,34,95,74,45,30.21,30.15,30.09,10,10,7,13,2,17,0.00,2,,342
2013-8-14,69,50,32,48,41,31,97,74,40,30.24,30.19,30.14,10,10,3,10,1,,0.00,3,,297
2013-8-15,75,57,39,54,47,38,95,71,38,30.15,30.12,30.09,10,10,5,13,2,20,0.00,4,,289
2013-8-16,77,59,41,57,50,39,96,72,39,30.21,30.18,30.15,10,10,3,8,1,,0.00,1,,260
2013-8-17,78,60,44,57,51,43,96,72,39,30.26,30.21,30.16,10,9,4,8,1,,0.00,1,,218
2013-8-18,78,60,43,57,52,42,96,72,38,30.21,30.15,30.08,10,9,2,9,1,,0.00,1,,199
2013-8-19,79,64,48,64,58,47,95,79,57,30.08,30.03,29.98,10,9,7,8,1,,0.00,1,,219
2013-8-20,84,70,57,68,63,56,97,77,55,30.03,29.99,29.95,10,8,0,8,1,,0.00,3,Fog,186
2013-8-21,85,70,54,70,65,54,96,82,58,30.04,29.96,29.89,10,8,0,13,1,25,0.09,2,Fog-Rain,212
2013-8-22,78,64,49,61,53,46,97,74,33,30.18,30.12,30.04,10,8,0,6,1,,0.01,0,Fog,346
2013-8-23,77,61,45,60,53,44,96,72,49,30.23,30.18,30.14,10,10,7,8,1,,0.01,2,,150
2013-8-24,79,68,56,65,59,54,94,73,50,30.24,30.17,30.08,10,10,7,8,2,18,0.00,2,,164
2013-8-25,89,79,69,71,68,64,87,71,50,30.11,30.06,30.01,10,10,7,10,4,20,0.00,0,,204
2013-8-26,84,74,65,74,69,63,96,84,66,30.10,30.02,29.96,10,8,1,14,1,22,0.02,5,Rain,235
2013-8-27,82,74,66,74,71,65,96,88,74,29.96,29.90,29.85,10,6,0,7,2,,0.00,6,Fog-Rain,349
2013-8-28,82,72,63,68,65,60,97,80,51,30.09,30.04,29.94,10,7,0,5,1,,0.00,3,Fog,54
2013-8-29,80,70,61,68,65,60,96,83,64,30.11,30.05,29.92,10,8,2,16,1,29,0.00,4,Rain,149
2013-8-30,76,67,57,70,63,55,95,81,60,29.97,29.91,29.84,10,9,2,10,3,17,0.00,5,Rain,11
2013-8-31,79,63,48,63,58,47,97,83,54,29.95,29.89,29.79,10,7,0,5,0,,0.00,1,Fog,170